INFORMACIÓN METAR y TAF
METAR FOR OKBK
ADDS - METARS form results

(0236 UTC 27 October 2021)
Data provider http://aviationweather.gov/metar/data/
 
METAR text: OKBK 270200Z 00000KT 8000 NSC 18/07 Q1015 NOSIG
Conditions at: OKBK (KUWAIT INTL (MIL, KW) observed 0200 UTC 27 October 2021
Temperature: 18.0°C (64°F)
Dewpoint: 7.0°C (45°F) [RH = 49%]
Pressure (altimeter): 29.97 inches Hg (1015.0 mb)
Winds: calm
Visibility: 5 miles ( 8 km)
Ceiling: at least 12,000 feet AGL
Clouds: sky clear below 12,000 feet AGL
Weather: no significant weather observed at this time

Forecast for: OKBK (KUWAIT INTL (MIL, KW)
Text: TAF OKBK 262245Z 2700/2806 VRB03KT 7000 NSC
Forecast period: 0000 UTC 27 October 2021 to 0600 UTC 28 October 2021
Forecast type: FROM: standard forecast or significant change
Winds: variable direction winds at 3 MPH (3 knots; 1.5 m/s)
Visibility: 4 miles (7 km)
Ceiling: unknown
Clouds: missing
Weather: no significant weather forecast for this period
Text: TEMPO 2709/2721 13010KT 7000 FEW030 BKN100
Forecast period: 0900 to 2100 UTC 27 October 2021
Forecast type: TEMPORARY: The following changes expected for less than half the time period
Winds: from the SE (130 degrees) at 12 MPH (10 knots; 5.1 m/s)
Visibility: 4 miles (7 km)
Ceiling: 10000 feet AGL
Clouds: few clouds at 3000 feet AGL
broken clouds at 10000 feet AGL
Weather: no significant weather forecast for this period

 MAPA DE AEROPUERTO

 INFORMACIÓN DE PISTA